createdAt,value
2019-03-06T00:00:38.793Z,76.84
2019-03-06T00:01:38.769Z,76.74
2019-03-06T00:02:38.787Z,76.64
2019-03-06T00:03:38.760Z,76.95
2019-03-06T00:04:38.741Z,76.64
2019-03-06T00:05:38.731Z,76.95
2019-03-06T00:06:38.741Z,76.84
2019-03-06T00:07:38.740Z,76.84
2019-03-06T00:08:38.721Z,76.84
2019-03-06T00:09:38.751Z,76.32
2019-03-06T00:10:38.672Z,76.53
2019-03-06T00:11:38.665Z,76.43
2019-03-06T00:12:38.654Z,76.32
2019-03-06T00:13:38.700Z,76.64
2019-03-06T00:14:38.609Z,76.95
2019-03-06T00:15:38.613Z,76.74
2019-03-06T00:16:38.614Z,77.05
2019-03-06T00:17:38.598Z,77.36
2019-03-06T00:18:38.627Z,77.56
2019-03-06T00:19:38.618Z,77.56
2019-03-06T00:20:38.568Z,77.53
2019-03-06T00:21:38.566Z,77.56
2019-03-06T00:22:38.560Z,77.22
2019-03-06T00:23:38.528Z,77.12
2019-03-06T00:24:38.570Z,77.33
2019-03-06T00:25:38.512Z,77.33
2019-03-06T00:26:38.554Z,77.43
2019-03-06T00:27:38.504Z,77.33
2019-03-06T00:28:38.483Z,77.33
2019-03-06T00:29:38.465Z,77.33
2019-03-06T00:30:38.455Z,77.43
2019-03-06T00:31:38.486Z,77.33
2019-03-06T00:32:38.444Z,77.53
2019-03-06T00:33:38.425Z,77.33
2019-03-06T00:34:38.409Z,77.22
2019-03-06T00:35:38.417Z,77.22
2019-03-06T00:36:38.409Z,77.53
2019-03-06T00:37:38.454Z,77.53
2019-03-06T00:38:38.390Z,77.43
2019-03-06T00:39:38.360Z,77.53
2019-03-06T00:40:38.353Z,77.12
2019-03-06T00:41:38.356Z,77.01
2019-03-06T00:42:38.340Z,77.01
2019-03-06T00:43:38.311Z,77.01
2019-03-06T00:44:38.306Z,77.22
2019-03-06T00:45:38.292Z,77.01
2019-03-06T00:46:38.290Z,76.91
2019-03-06T00:47:38.755Z,77.12
2019-03-06T00:48:38.313Z,77.12
2019-03-06T00:49:38.288Z,77.12
2019-03-06T00:50:38.247Z,77.22
2019-03-06T00:51:38.227Z,76.81
2019-03-06T00:52:38.220Z,76.77
2019-03-06T00:53:38.206Z,76.91
2019-03-06T00:54:38.208Z,77.01
2019-03-06T00:55:38.192Z,77.01
2019-03-06T00:56:38.179Z,77.53
2019-03-06T00:57:38.160Z,77.43
2019-03-06T00:58:38.165Z,77.33
2019-03-06T00:59:38.159Z,77.33
2019-03-06T01:00:38.194Z,77.08
2019-03-06T01:01:38.180Z,76.98
2019-03-06T01:02:38.120Z,77.01
2019-03-06T01:03:38.125Z,77.19
2019-03-06T01:04:38.132Z,77.60
2019-03-06T01:05:38.152Z,77.70
2019-03-06T01:06:38.160Z,77.22
2019-03-06T01:07:38.075Z,77.29
2019-03-06T01:08:38.038Z,77.19
2019-03-06T01:09:38.067Z,77.29
2019-03-06T01:10:38.049Z,77.50
2019-03-06T01:11:38.043Z,77.29
2019-03-06T01:12:38.018Z,77.60
2019-03-06T01:13:38.070Z,77.60
2019-03-06T01:14:37.971Z,77.29
2019-03-06T01:15:38.006Z,77.19
2019-03-06T01:16:38.016Z,77.39
2019-03-06T01:17:37.921Z,77.60
2019-03-06T01:18:37.977Z,77.50
2019-03-06T01:19:37.949Z,77.29
2019-03-06T01:20:37.951Z,78.32
2019-03-06T01:21:37.937Z,78.32
2019-03-06T01:22:37.999Z,77.60
2019-03-06T01:23:37.876Z,77.81
2019-03-06T01:24:37.865Z,77.70
2019-03-06T01:25:37.883Z,78.22
2019-03-06T01:26:37.882Z,78.22
2019-03-06T01:27:37.837Z,77.91
2019-03-06T01:28:37.818Z,78.08
2019-03-06T01:29:37.849Z,77.91
2019-03-06T01:30:37.783Z,77.81
2019-03-06T01:31:37.841Z,78.01
2019-03-06T01:32:38.739Z,77.91
2019-03-06T01:33:37.753Z,77.60
2019-03-06T01:34:37.785Z,78.32
2019-03-06T01:35:37.775Z,78.22
2019-03-06T01:36:37.770Z,78.01
2019-03-06T01:37:37.736Z,78.22
2019-03-06T01:38:37.742Z,78.01
2019-03-06T01:39:37.719Z,78.74
2019-03-06T01:40:37.695Z,78.53
2019-03-06T01:41:37.698Z,78.42
2019-03-06T01:42:37.681Z,77.98
2019-03-06T01:43:37.702Z,78.59
2019-03-06T01:44:37.639Z,78.74
2019-03-06T01:45:37.651Z,78.53
2019-03-06T01:46:37.659Z,78.59
2019-03-06T01:47:37.635Z,78.49
2019-03-06T01:48:37.706Z,78.28
2019-03-06T01:49:37.598Z,78.49
2019-03-06T01:50:37.615Z,78.49
2019-03-06T01:51:37.603Z,77.98
2019-03-06T01:52:37.574Z,78.49
2019-03-06T01:53:37.555Z,78.80
2019-03-06T01:54:37.544Z,78.70
2019-03-06T01:55:37.593Z,78.91
2019-03-06T01:56:37.524Z,79.22
2019-03-06T01:57:37.563Z,79.11
2019-03-06T01:58:37.522Z,79.01
2019-03-06T01:59:37.519Z,78.39
2019-03-06T02:00:37.478Z,78.59
2019-03-06T02:01:37.721Z,79.22
2019-03-06T02:02:37.470Z,79.22
2019-03-06T02:03:38.970Z,79.52
2019-03-06T02:04:37.447Z,79.32
2019-03-06T02:05:37.439Z,79.52
2019-03-06T02:06:37.428Z,79.52
2019-03-06T02:07:37.441Z,79.22
2019-03-06T02:08:37.406Z,79.83
2019-03-06T02:09:37.413Z,79.42
2019-03-06T02:10:37.404Z,80.35
2019-03-06T02:11:37.365Z,80.52
2019-03-06T02:12:37.386Z,80.25
2019-03-06T02:13:37.343Z,80.15
2019-03-06T02:14:37.366Z,80.15
2019-03-06T02:15:37.318Z,80.25
2019-03-06T02:16:37.361Z,80.56
2019-03-06T02:17:37.302Z,80.35
2019-03-06T02:18:37.332Z,80.46
2019-03-06T02:19:37.278Z,80.66
2019-03-06T02:20:37.320Z,80.66
2019-03-06T02:21:37.262Z,80.76
2019-03-06T02:22:37.270Z,80.76
2019-03-06T02:23:37.264Z,80.66
2019-03-06T02:24:37.228Z,80.46
2019-03-06T02:25:37.244Z,80.66
2019-03-06T02:26:37.228Z,80.35
2019-03-06T02:27:37.192Z,80.56
2019-03-06T02:28:37.214Z,80.73
2019-03-06T02:29:37.144Z,80.66
2019-03-06T02:30:37.165Z,81.14
2019-03-06T02:31:37.167Z,81.04
2019-03-06T02:32:37.169Z,80.76
2019-03-06T02:33:37.160Z,81.18
2019-03-06T02:34:37.097Z,81.07
2019-03-06T02:35:37.109Z,81.07
2019-03-06T02:36:37.098Z,80.97
2019-03-06T02:37:37.114Z,81.28
2019-03-06T02:38:37.126Z,81.56
2019-03-06T02:39:37.070Z,81.76
2019-03-06T02:40:37.083Z,81.90
2019-03-06T02:41:37.072Z,81.70
2019-03-06T02:42:37.059Z,82.31
2019-03-06T02:43:37.117Z,82.10
2019-03-06T02:44:39.876Z,82.00
2019-03-06T02:45:37.040Z,81.90
2019-03-06T02:46:37.061Z,82.42
2019-03-06T02:47:36.964Z,82.21
2019-03-06T02:48:37.103Z,82.62
2019-03-06T02:49:36.981Z,82.73
2019-03-06T02:50:36.970Z,82.28
2019-03-06T02:51:36.914Z,82.83
2019-03-06T02:52:36.972Z,83.14
2019-03-06T02:53:36.932Z,83.25
2019-03-06T02:54:36.933Z,82.89
2019-03-06T02:55:36.941Z,82.93
2019-03-06T02:56:36.949Z,82.89
2019-03-06T02:57:36.896Z,83.25
2019-03-06T02:58:36.852Z,83.86
2019-03-06T02:59:36.846Z,83.55
2019-03-06T03:00:36.883Z,83.86
2019-03-06T03:01:36.858Z,83.34
2019-03-06T03:02:36.878Z,83.55
2019-03-06T03:03:36.825Z,84.17
2019-03-06T03:04:36.809Z,84.07
2019-03-06T03:05:36.769Z,84.07
2019-03-06T03:06:36.769Z,84.59
2019-03-06T03:07:36.772Z,84.38
2019-03-06T03:08:36.774Z,84.79
2019-03-06T03:09:36.763Z,84.89
2019-03-06T03:10:36.725Z,85.21
2019-03-06T03:11:36.729Z,85.21
2019-03-06T03:12:36.701Z,85.21
2019-03-06T03:13:36.702Z,84.89
2019-03-06T03:14:36.681Z,84.69
2019-03-06T03:15:36.709Z,85.58
2019-03-06T03:16:37.226Z,85.37
2019-03-06T03:17:36.666Z,85.41
2019-03-06T03:18:36.655Z,85.78
2019-03-06T03:19:36.647Z,85.83
2019-03-06T03:20:36.681Z,85.72
2019-03-06T03:21:36.677Z,85.72
2019-03-06T03:22:36.599Z,85.83
2019-03-06T03:23:36.580Z,85.72
2019-03-06T03:24:36.567Z,85.93
2019-03-06T03:25:36.617Z,86.03
2019-03-06T03:26:36.552Z,85.83
2019-03-06T03:27:36.554Z,85.89
2019-03-06T03:28:36.551Z,85.83
2019-03-06T03:29:36.524Z,85.78
2019-03-06T03:31:57.151Z,85.93
2019-03-06T03:32:57.077Z,85.68
2019-03-06T03:33:57.152Z,85.93
2019-03-06T03:34:57.083Z,85.83
2019-03-06T03:35:57.139Z,86.44
2019-03-06T03:36:57.040Z,86.13
2019-03-06T03:37:57.018Z,85.83
2019-03-06T03:38:57.008Z,86.03
2019-03-06T03:39:57.003Z,86.03
2019-03-06T03:40:57.022Z,86.10
2019-03-06T03:41:56.980Z,86.34
2019-03-06T03:42:56.958Z,86.76
2019-03-06T03:43:56.960Z,86.65
2019-03-06T03:44:56.998Z,86.24
2019-03-06T03:45:56.977Z,86.24
2019-03-06T03:46:56.935Z,86.55
2019-03-06T03:47:56.928Z,86.65
2019-03-06T03:48:56.894Z,86.34
2019-03-06T03:49:56.914Z,86.65
2019-03-06T03:50:56.875Z,86.86
2019-03-06T03:51:56.917Z,86.96
2019-03-06T03:52:56.845Z,87.07
2019-03-06T03:53:56.848Z,87.07
2019-03-06T03:54:56.835Z,86.76
2019-03-06T03:55:56.828Z,86.92
2019-03-06T03:56:56.851Z,87.17
2019-03-06T03:57:56.818Z,86.92
2019-03-06T03:58:56.815Z,86.96
2019-03-06T03:59:56.782Z,87.07
2019-03-06T04:00:56.831Z,87.02
2019-03-06T04:01:56.799Z,87.27
2019-03-06T04:02:56.771Z,87.07
2019-03-06T04:03:56.795Z,87.07
2019-03-06T04:04:56.769Z,86.76
2019-03-06T04:05:56.741Z,87.27
2019-03-06T04:06:56.753Z,87.37
2019-03-06T04:07:56.731Z,87.27
2019-03-06T04:08:56.695Z,87.07
2019-03-06T04:09:56.688Z,87.37
2019-03-06T04:10:56.690Z,87.58
2019-03-06T04:11:56.716Z,87.68
2019-03-06T04:12:56.677Z,87.68
2019-03-06T04:13:56.643Z,87.17
2019-03-06T04:14:56.624Z,87.34
2019-03-06T04:15:56.610Z,87.17
2019-03-06T04:16:56.642Z,87.27
2019-03-06T04:17:56.596Z,87.17
2019-03-06T04:18:56.584Z,87.54
2019-03-06T04:19:56.575Z,87.37
2019-03-06T04:20:56.606Z,87.37
2019-03-06T04:21:56.621Z,87.68
2019-03-06T04:22:56.557Z,87.17
2019-03-06T04:23:56.591Z,87.37
2019-03-06T04:24:56.518Z,87.54
2019-03-06T04:25:56.508Z,87.23
2019-03-06T04:26:56.496Z,87.07
2019-03-06T04:27:56.531Z,87.27
2019-03-06T04:28:56.529Z,87.44
2019-03-06T04:29:56.461Z,87.07
2019-03-06T04:30:56.432Z,86.96
2019-03-06T04:31:56.489Z,87.13
2019-03-06T04:32:56.460Z,86.96
2019-03-06T04:33:56.445Z,87.34
2019-03-06T04:34:56.415Z,87.23
2019-03-06T04:35:56.413Z,87.13
2019-03-06T04:36:56.426Z,87.27
2019-03-06T04:37:56.450Z,87.13
2019-03-06T04:38:56.370Z,87.27
2019-03-06T04:39:56.385Z,87.54
2019-03-06T04:40:56.395Z,87.23
2019-03-06T04:41:56.386Z,87.23
2019-03-06T04:42:56.410Z,87.13
2019-03-06T04:43:56.364Z,87.13
2019-03-06T04:44:56.348Z,87.23
2019-03-06T04:45:56.307Z,87.23
2019-03-06T04:46:56.298Z,87.17
2019-03-06T04:47:56.297Z,87.13
2019-03-06T04:48:56.240Z,87.34
2019-03-06T04:49:56.271Z,87.48
2019-03-06T04:50:56.322Z,87.37
2019-03-06T04:51:56.252Z,86.92
2019-03-06T04:52:56.281Z,87.74
2019-03-06T04:53:56.209Z,87.44
2019-03-06T04:54:56.185Z,87.44
2019-03-06T04:55:56.217Z,87.44
2019-03-06T04:56:56.170Z,87.13
2019-03-06T04:57:56.165Z,87.34
2019-03-06T04:58:56.186Z,87.54
2019-03-06T04:59:56.138Z,87.13
2019-03-06T05:00:56.127Z,87.44
2019-03-06T05:01:56.178Z,87.74
2019-03-06T05:02:56.110Z,87.44
2019-03-06T05:03:56.121Z,87.65
2019-03-06T05:04:56.082Z,87.74
2019-03-06T05:05:56.070Z,87.44
2019-03-06T05:06:56.098Z,87.44
2019-03-06T05:07:56.048Z,87.34
2019-03-06T05:08:56.097Z,87.13
2019-03-06T05:09:56.024Z,87.44
2019-03-06T05:10:56.079Z,87.54
2019-03-06T05:11:55.988Z,87.74
2019-03-06T05:12:56.030Z,88.26
2019-03-06T05:13:56.015Z,87.74
2019-03-06T05:14:55.997Z,87.95
2019-03-06T05:15:56.067Z,87.95
2019-03-06T05:16:55.978Z,87.95
2019-03-06T05:17:55.978Z,87.44
2019-03-06T05:18:55.937Z,87.65
2019-03-06T05:19:55.920Z,87.85
2019-03-06T05:20:55.911Z,87.85
2019-03-06T05:21:55.896Z,87.74
2019-03-06T05:22:55.892Z,87.74
2019-03-06T05:23:55.919Z,87.54
2019-03-06T05:24:55.872Z,87.54
2019-03-06T05:25:55.865Z,87.95
2019-03-06T05:26:55.874Z,87.74
2019-03-06T05:27:55.899Z,87.74
2019-03-06T05:28:55.853Z,87.85
2019-03-06T05:29:55.856Z,87.54
2019-03-06T05:30:55.801Z,87.60
2019-03-06T05:31:55.826Z,87.65
2019-03-06T05:32:55.786Z,87.85
2019-03-06T05:33:55.798Z,87.85
2019-03-06T05:34:55.826Z,87.71
2019-03-06T05:35:55.752Z,87.54
2019-03-06T05:36:55.768Z,87.92
2019-03-06T05:37:55.756Z,87.50
2019-03-06T05:38:55.751Z,87.74
2019-03-06T05:39:55.774Z,87.54
2019-03-06T05:40:55.731Z,87.50
2019-03-06T05:41:55.704Z,87.44
2019-03-06T05:42:55.703Z,88.06
2019-03-06T05:43:55.707Z,87.50
2019-03-06T05:44:55.654Z,87.81
2019-03-06T05:45:55.676Z,87.92
2019-03-06T05:46:55.634Z,87.60
2019-03-06T05:47:55.698Z,87.95
2019-03-06T05:48:55.646Z,87.65
2019-03-06T05:49:55.636Z,87.85
2019-03-06T05:50:55.617Z,88.26
2019-03-06T05:51:55.576Z,88.26
2019-03-06T05:52:55.606Z,88.64
2019-03-06T05:53:55.591Z,88.53
2019-03-06T05:54:55.538Z,88.43
2019-03-06T05:55:55.541Z,88.43
2019-03-06T05:56:55.532Z,88.68
2019-03-06T05:57:55.546Z,88.53
2019-03-06T05:58:55.606Z,88.78
2019-03-06T05:59:55.505Z,88.74
2019-03-06T06:00:55.553Z,88.12
2019-03-06T06:01:55.505Z,87.71
2019-03-06T06:02:55.465Z,87.71
2019-03-06T06:03:55.476Z,87.60
2019-03-06T06:04:55.466Z,87.92
2019-03-06T06:05:55.442Z,87.60
2019-03-06T06:06:55.451Z,87.85
2019-03-06T06:07:55.452Z,87.85
2019-03-06T06:08:55.427Z,87.71
2019-03-06T06:09:55.422Z,87.92
2019-03-06T06:10:55.653Z,87.71
2019-03-06T06:11:55.391Z,87.54
2019-03-06T06:12:55.369Z,87.92
2019-03-06T06:13:55.361Z,88.22
2019-03-06T06:14:55.366Z,88.53
2019-03-06T06:15:55.322Z,88.64
2019-03-06T06:16:55.672Z,88.43
2019-03-06T06:17:55.390Z,87.92
2019-03-06T06:18:55.284Z,87.81
2019-03-06T06:19:55.313Z,87.40
2019-03-06T06:20:55.314Z,88.22
2019-03-06T06:21:55.242Z,88.12
2019-03-06T06:22:55.275Z,87.71
2019-03-06T06:23:55.345Z,87.81
2019-03-06T06:24:55.349Z,87.60
2019-03-06T06:25:55.266Z,87.60
2019-03-06T06:26:55.217Z,87.92
2019-03-06T06:27:55.211Z,87.92
2019-03-06T06:28:55.182Z,87.60
2019-03-06T06:29:55.289Z,88.12
2019-03-06T06:30:55.192Z,87.71
2019-03-06T06:31:55.192Z,87.81
2019-03-06T06:32:55.153Z,87.66
2019-03-06T06:33:55.133Z,87.66
2019-03-06T06:34:55.195Z,87.66
2019-03-06T06:35:55.106Z,87.71
2019-03-06T06:36:55.127Z,87.71
2019-03-06T06:37:55.086Z,88.02
2019-03-06T06:38:55.075Z,87.98
2019-03-06T06:39:55.067Z,87.87
2019-03-06T06:40:55.090Z,87.98
2019-03-06T06:41:55.040Z,87.26
2019-03-06T06:42:55.039Z,87.46
2019-03-06T06:43:55.020Z,87.66
2019-03-06T06:44:55.013Z,87.87
2019-03-06T06:45:54.991Z,88.08
2019-03-06T06:46:55.016Z,87.35
2019-03-06T06:47:54.966Z,87.87
2019-03-06T06:48:54.962Z,87.50
2019-03-06T06:49:54.933Z,88.02
2019-03-06T06:51:01.748Z,88.08
2019-03-06T06:51:55.994Z,88.08
2019-03-06T06:52:54.928Z,88.08
2019-03-06T06:53:54.914Z,87.35
2019-03-06T06:54:54.894Z,87.46
2019-03-06T06:55:54.874Z,87.35
2019-03-06T06:56:54.879Z,87.35
2019-03-06T06:57:54.897Z,87.66
2019-03-06T06:58:54.869Z,87.46
2019-03-06T06:59:54.839Z,87.26
2019-03-06T07:00:54.829Z,86.84
2019-03-06T07:01:54.820Z,87.26
2019-03-06T07:02:54.845Z,86.94
2019-03-06T07:03:54.782Z,87.05
2019-03-06T07:04:54.781Z,86.94
2019-03-06T07:05:54.771Z,87.11
2019-03-06T07:06:54.748Z,87.01
2019-03-06T07:07:54.803Z,86.63
2019-03-06T07:08:54.744Z,87.35
2019-03-06T07:09:54.753Z,87.21
2019-03-06T07:10:54.737Z,87.21
2019-03-06T07:11:54.705Z,86.70
2019-03-06T07:12:54.696Z,86.90
2019-03-06T07:13:54.761Z,86.90
2019-03-06T07:14:54.676Z,87.11
2019-03-06T07:15:54.655Z,87.21
2019-03-06T07:16:54.634Z,86.90
2019-03-06T07:17:54.699Z,87.21
2019-03-06T07:18:54.613Z,86.90
2019-03-06T07:19:54.671Z,87.21
2019-03-06T07:20:54.599Z,87.42
2019-03-06T07:21:54.602Z,87.42
2019-03-06T07:22:54.566Z,87.01
2019-03-06T07:23:54.605Z,86.66
2019-03-06T07:24:54.544Z,86.76
2019-03-06T07:25:54.551Z,86.87
2019-03-06T07:26:54.536Z,86.87
2019-03-06T07:27:54.562Z,86.87
2019-03-06T07:28:54.545Z,87.07
2019-03-06T07:29:54.526Z,86.15
2019-03-06T07:30:54.516Z,85.94
2019-03-06T07:31:54.478Z,86.24
2019-03-06T07:32:54.498Z,85.94
2019-03-06T07:33:54.555Z,86.24
2019-03-06T07:34:54.451Z,85.42
2019-03-06T07:35:54.438Z,85.79
2019-03-06T07:36:54.432Z,85.63
2019-03-06T07:37:54.413Z,85.83
2019-03-06T07:38:54.477Z,85.73
2019-03-06T07:39:54.391Z,85.59
2019-03-06T07:40:54.384Z,85.59
2019-03-06T07:41:54.414Z,85.07
2019-03-06T07:42:54.372Z,85.34
2019-03-06T07:43:54.350Z,85.28
2019-03-06T07:44:54.336Z,85.38
2019-03-06T07:45:54.356Z,85.28
2019-03-06T07:46:54.353Z,85.28
2019-03-06T07:47:54.308Z,85.38
2019-03-06T07:48:54.276Z,84.87
2019-03-06T07:49:54.310Z,84.66
2019-03-06T07:50:54.266Z,85.24
2019-03-06T07:51:54.259Z,84.56
2019-03-06T07:52:54.259Z,84.45
2019-03-06T07:53:54.241Z,84.21
2019-03-06T07:54:54.278Z,84.31
2019-03-06T07:55:54.233Z,84.21
2019-03-06T07:56:54.266Z,84.21
2019-03-06T07:57:54.214Z,84.00
2019-03-06T07:58:54.183Z,84.11
2019-03-06T07:59:54.217Z,84.21
2019-03-06T08:00:54.174Z,84.11
2019-03-06T08:01:54.187Z,83.90
2019-03-06T08:02:54.136Z,83.80
2019-03-06T08:03:54.115Z,84.00
2019-03-06T08:04:54.119Z,83.39
2019-03-06T08:05:54.160Z,83.76
2019-03-06T08:06:54.118Z,83.90
2019-03-06T08:07:54.155Z,83.65
2019-03-06T08:08:54.115Z,83.76
2019-03-06T08:09:54.109Z,83.80
2019-03-06T08:10:54.102Z,83.55
2019-03-06T08:11:54.093Z,83.70
2019-03-06T08:12:54.072Z,83.59
2019-03-06T08:13:54.023Z,83.65
2019-03-06T08:14:54.023Z,83.28
2019-03-06T08:15:54.322Z,82.93
2019-03-06T08:16:54.015Z,83.35
2019-03-06T08:17:53.972Z,83.25
2019-03-06T08:18:55.943Z,83.25
2019-03-06T08:19:53.946Z,83.25
2019-03-06T08:20:53.925Z,82.53
2019-03-06T08:21:53.959Z,82.73
2019-03-06T08:22:53.937Z,82.83
2019-03-06T08:23:53.919Z,82.83
2019-03-06T08:24:53.892Z,83.25
2019-03-06T08:25:53.929Z,82.59
2019-03-06T08:26:53.899Z,81.67
2019-03-06T08:27:53.862Z,82.39
2019-03-06T08:28:53.852Z,81.67
2019-03-06T08:29:53.858Z,81.76
2019-03-06T08:30:53.888Z,81.76
2019-03-06T08:31:53.854Z,81.46
2019-03-06T08:32:53.838Z,81.73
2019-03-06T08:33:53.817Z,81.15
2019-03-06T08:34:53.807Z,81.15
2019-03-06T08:35:53.782Z,81.32
2019-03-06T08:36:53.766Z,81.52
2019-03-06T08:37:53.763Z,81.62
2019-03-06T08:38:53.746Z,81.52
2019-03-06T08:39:53.706Z,81.52
2019-03-06T08:40:53.690Z,80.49
2019-03-06T08:41:53.741Z,80.60
2019-03-06T08:42:53.712Z,80.60
2019-03-06T08:43:53.693Z,80.60
2019-03-06T08:44:53.692Z,80.91
2019-03-06T08:45:53.688Z,79.84
2019-03-06T08:46:53.666Z,80.29
2019-03-06T08:47:53.653Z,80.80
2019-03-06T08:48:53.644Z,80.19
2019-03-06T08:49:55.223Z,79.53
2019-03-06T08:50:53.660Z,80.08
2019-03-06T08:51:53.616Z,79.22
2019-03-06T08:52:53.577Z,79.84
2019-03-06T08:53:53.576Z,79.33
2019-03-06T08:54:53.603Z,80.15
2019-03-06T08:55:53.557Z,79.88
2019-03-06T08:56:53.592Z,80.39
2019-03-06T08:57:53.523Z,80.25
2019-03-06T08:58:53.540Z,79.94
2019-03-06T08:59:53.521Z,79.94
2019-03-06T09:00:53.515Z,80.05
2019-03-06T09:02:00.440Z,79.12
2019-03-06T09:02:54.531Z,79.12
2019-03-06T09:03:53.474Z,78.92
2019-03-06T09:04:53.449Z,78.71
2019-03-06T09:05:53.433Z,78.50
2019-03-06T09:06:53.470Z,78.81
2019-03-06T09:07:53.519Z,78.67
2019-03-06T09:08:53.406Z,77.95
2019-03-06T09:09:53.388Z,77.85
2019-03-06T09:11:02.282Z,78.06
2019-03-06T09:11:54.374Z,77.95
2019-03-06T09:12:53.378Z,77.65
2019-03-06T09:13:53.422Z,78.27
2019-03-06T09:14:53.350Z,77.95
2019-03-06T09:15:53.326Z,77.71
2019-03-06T09:16:53.338Z,77.51
2019-03-06T09:17:53.323Z,77.30
2019-03-06T09:18:53.312Z,77.10
2019-03-06T09:19:53.313Z,77.81
2019-03-06T09:20:53.291Z,77.00
2019-03-06T09:21:53.287Z,77.00
2019-03-06T09:22:53.262Z,76.28
2019-03-06T09:23:53.225Z,76.89
2019-03-06T09:24:53.228Z,76.79
2019-03-06T09:25:53.231Z,76.48
2019-03-06T09:26:53.194Z,76.89
2019-03-06T09:27:53.225Z,76.65
2019-03-06T09:29:00.701Z,76.34
2019-03-06T09:29:54.158Z,76.34
2019-03-06T09:30:53.156Z,76.28
2019-03-06T09:31:53.168Z,76.55
2019-03-06T09:32:53.176Z,76.14
2019-03-06T09:33:53.139Z,76.14
2019-03-06T09:34:53.132Z,75.93
2019-03-06T09:35:53.116Z,75.62
2019-03-06T09:36:53.071Z,75.62
2019-03-06T09:37:53.062Z,75.32
2019-03-06T09:38:53.085Z,75.21
2019-03-06T09:39:53.097Z,75.28
2019-03-06T09:40:53.021Z,75.08
2019-03-06T09:41:53.014Z,74.36
2019-03-06T09:42:53.011Z,74.57
2019-03-06T09:43:53.021Z,74.46
2019-03-06T09:44:52.982Z,73.74
2019-03-06T09:45:52.989Z,74.77
2019-03-06T09:46:52.979Z,73.54
2019-03-06T09:47:53.000Z,74.57
2019-03-06T09:48:52.982Z,73.64
2019-03-06T09:49:52.952Z,73.40
2019-03-06T09:50:52.963Z,73.50
2019-03-06T09:51:52.953Z,73.30
2019-03-06T09:52:52.974Z,71.97
2019-03-06T09:53:52.983Z,72.38
2019-03-06T09:54:54.975Z,72.24
2019-03-06T09:55:52.871Z,72.07
2019-03-06T09:56:52.865Z,72.44
2019-03-06T09:57:52.866Z,72.03
2019-03-06T09:58:52.913Z,72.03
2019-03-06T09:59:52.866Z,71.73
2019-03-06T10:00:52.815Z,72.24
2019-03-06T10:01:52.801Z,72.24
2019-03-06T10:02:52.830Z,72.14
2019-03-06T10:03:52.790Z,71.69
2019-03-06T10:04:52.828Z,71.80
2019-03-06T10:05:52.779Z,70.77
2019-03-06T10:06:52.767Z,70.87
2019-03-06T10:07:52.742Z,71.18
2019-03-06T10:08:52.779Z,71.28
2019-03-06T10:09:59.025Z,71.04
2019-03-06T10:10:57.525Z,70.03
2019-03-06T10:11:52.717Z,69.31
2019-03-06T10:12:52.725Z,69.17
2019-03-06T10:13:52.731Z,69.17
2019-03-06T10:14:52.724Z,69.99
2019-03-06T10:15:52.667Z,69.79
2019-03-06T10:16:52.675Z,68.66
2019-03-06T10:17:52.656Z,68.25
2019-03-06T10:18:52.628Z,68.73
2019-03-06T10:19:52.650Z,68.32
2019-03-06T10:20:52.657Z,67.50
2019-03-06T10:21:52.589Z,67.40
2019-03-06T10:22:54.851Z,67.71
2019-03-06T10:23:53.629Z,67.19
2019-03-06T10:24:52.561Z,67.19
2019-03-06T10:25:52.560Z,65.46
2019-03-06T10:26:52.593Z,65.94
2019-03-06T10:27:52.510Z,65.12
2019-03-06T10:28:52.517Z,65.53
2019-03-06T10:29:52.506Z,65.30
2019-03-06T10:31:01.865Z,64.78
2019-03-06T10:31:53.503Z,64.48
2019-03-06T10:32:52.512Z,63.04
2019-03-06T10:33:52.533Z,63.15
2019-03-06T10:34:52.447Z,63.93
2019-03-06T10:35:52.472Z,63.22
2019-03-06T10:36:52.427Z,63.63
2019-03-06T10:37:52.416Z,63.02
2019-03-06T10:38:52.409Z,63.09
2019-03-06T10:39:52.439Z,62.92
2019-03-06T10:40:52.422Z,62.07
2019-03-06T10:41:52.373Z,60.44
2019-03-06T10:42:52.371Z,61.35
2019-03-06T10:43:52.351Z,61.56
2019-03-06T10:44:52.343Z,61.66
2019-03-06T10:45:52.365Z,61.46
2019-03-06T10:46:52.328Z,61.53
2019-03-06T10:47:52.325Z,61.22
2019-03-06T10:48:52.324Z,60.94
2019-03-06T10:49:52.273Z,61.53
2019-03-06T10:50:52.310Z,60.92
2019-03-06T10:51:52.292Z,60.71
2019-03-06T10:52:52.275Z,61.22
2019-03-06T10:53:52.262Z,60.94
2019-03-06T10:54:52.240Z,60.74
2019-03-06T10:55:52.320Z,60.94
2019-03-06T10:56:52.200Z,60.64
2019-03-06T10:57:52.191Z,61.25
2019-03-06T10:58:52.197Z,60.33
2019-03-06T10:59:52.185Z,60.85
2019-03-06T11:00:52.174Z,60.82
2019-03-06T11:01:52.204Z,60.44
2019-03-06T11:02:52.123Z,60.03
2019-03-06T11:03:52.114Z,60.41
2019-03-06T11:04:52.127Z,60.10
2019-03-06T11:05:52.113Z,61.25
2019-03-06T11:06:52.140Z,61.25
2019-03-06T11:07:52.087Z,61.05
2019-03-06T11:08:52.108Z,60.71
2019-03-06T11:09:52.047Z,60.82
2019-03-06T11:10:52.079Z,60.30
2019-03-06T11:11:52.080Z,60.38
2019-03-06T11:12:52.034Z,60.07
2019-03-06T11:13:52.025Z,60.28
2019-03-06T11:14:52.013Z,59.97
2019-03-06T11:15:55.623Z,59.97
2019-03-06T11:16:51.982Z,59.66
2019-03-06T11:17:52.025Z,59.26
2019-03-06T11:18:51.972Z,59.26
2019-03-06T11:19:51.964Z,59.26
2019-03-06T11:20:51.986Z,59.23
2019-03-06T11:21:51.961Z,60.05
2019-03-06T11:22:51.973Z,58.92
2019-03-06T11:23:51.920Z,59.03
2019-03-06T11:24:51.909Z,58.82
2019-03-06T11:25:51.901Z,59.00
2019-03-06T11:26:51.880Z,58.39
2019-03-06T11:27:51.890Z,57.70
2019-03-06T11:28:51.863Z,58.49
2019-03-06T11:29:51.850Z,58.69
2019-03-06T11:30:51.846Z,57.98
2019-03-06T11:31:51.842Z,59.00
2019-03-06T11:32:54.494Z,59.41
2019-03-06T11:33:51.851Z,59.17
2019-03-06T11:34:51.812Z,58.67
2019-03-06T11:35:51.833Z,58.56
2019-03-06T11:36:51.758Z,58.89
2019-03-06T11:37:51.872Z,58.05
2019-03-06T11:38:51.745Z,58.56
2019-03-06T11:39:51.779Z,58.28
2019-03-06T11:40:51.763Z,58.26
2019-03-06T11:41:51.776Z,58.36
2019-03-06T11:42:51.732Z,57.85
2019-03-06T11:43:51.769Z,57.65
2019-03-06T11:44:51.744Z,58.87
2019-03-06T11:45:51.673Z,57.44
2019-03-06T11:46:53.074Z,57.75
2019-03-06T11:47:51.655Z,57.85
2019-03-06T11:48:51.675Z,58.67
2019-03-06T11:49:51.663Z,59.14
2019-03-06T11:50:51.639Z,59.45
2019-03-06T11:51:51.635Z,59.45
2019-03-06T11:52:51.659Z,57.62
2019-03-06T11:53:51.666Z,58.44
2019-03-06T11:54:51.626Z,56.90
2019-03-06T11:55:51.578Z,56.70
2019-03-06T11:56:51.569Z,57.52
2019-03-06T11:57:51.652Z,57.62
2019-03-06T11:58:51.545Z,57.21
2019-03-06T11:59:51.548Z,56.40
2019-03-06T12:00:51.510Z,57.08
2019-03-06T12:01:51.540Z,56.50
2019-03-06T12:02:51.523Z,55.96
2019-03-06T12:03:51.580Z,56.70
2019-03-06T12:04:51.504Z,56.07
2019-03-06T12:05:51.493Z,55.99
2019-03-06T12:06:51.461Z,55.99
2019-03-06T12:07:51.463Z,55.79
2019-03-06T12:08:51.476Z,55.55
2019-03-06T12:09:51.400Z,56.07
2019-03-06T12:10:51.469Z,56.40
2019-03-06T12:11:51.423Z,56.77
2019-03-06T12:12:51.394Z,56.68
2019-03-06T12:13:51.385Z,56.37
2019-03-06T12:14:51.398Z,57.18
2019-03-06T12:15:51.368Z,56.57
2019-03-06T12:16:51.362Z,57.59
2019-03-06T12:17:51.345Z,57.49
2019-03-06T12:18:51.401Z,56.68
2019-03-06T12:19:51.329Z,57.49
2019-03-06T12:20:51.302Z,57.08
2019-03-06T12:21:51.283Z,57.29
2019-03-06T12:22:51.289Z,56.27
2019-03-06T12:23:51.310Z,55.96
2019-03-06T12:24:51.252Z,56.07
2019-03-06T12:25:51.244Z,55.86
2019-03-06T12:26:51.248Z,54.21
2019-03-06T12:27:51.236Z,55.43
2019-03-06T12:28:51.262Z,55.66
2019-03-06T12:29:51.197Z,54.31
2019-03-06T12:30:51.193Z,55.63
2019-03-06T12:31:51.178Z,56.04
2019-03-06T12:32:51.165Z,55.43
2019-03-06T12:33:51.190Z,55.12
2019-03-06T12:34:51.189Z,55.63
2019-03-06T12:35:51.129Z,55.83
2019-03-06T12:36:51.122Z,56.55
2019-03-06T12:37:51.109Z,56.45
2019-03-06T12:38:51.089Z,55.83
2019-03-06T12:39:51.133Z,56.04
2019-03-06T12:40:51.081Z,55.51
2019-03-06T12:41:51.068Z,55.73
2019-03-06T12:42:51.053Z,55.30
2019-03-06T12:43:51.051Z,55.60
2019-03-06T12:44:51.056Z,54.08
2019-03-06T12:45:51.097Z,53.67
2019-03-06T12:46:51.007Z,54.61
2019-03-06T12:47:55.367Z,55.10
2019-03-06T12:48:51.968Z,55.60
2019-03-06T12:49:50.966Z,55.81
2019-03-06T12:50:55.968Z,56.12
2019-03-06T12:51:54.626Z,54.49
2019-03-06T12:52:50.941Z,55.60
2019-03-06T12:53:50.913Z,54.69